createdAt,value
2018-09-05T00:00:11.211Z,96803.48
2018-09-05T00:02:40.192Z,96801.94
2018-09-05T00:05:09.464Z,96805.23
2018-09-05T00:07:38.279Z,96802.60
2018-09-05T00:10:07.073Z,96803.42
2018-09-05T00:12:35.925Z,96804.42
2018-09-05T00:15:04.804Z,96806.20
2018-09-05T00:17:33.588Z,96800.97
2018-09-05T00:20:02.377Z,96800.09
2018-09-05T00:22:31.176Z,96802.09
2018-09-05T00:24:59.944Z,96805.36
2018-09-05T00:27:28.708Z,96803.38
2018-09-05T00:29:57.524Z,96801.23
2018-09-05T00:32:26.387Z,96800.99
2018-09-05T00:34:55.211Z,96795.19
2018-09-05T00:37:24.005Z,96794.58
2018-09-05T00:39:52.788Z,96799.15
2018-09-05T00:42:21.574Z,96797.06
2018-09-05T00:44:50.366Z,96797.65
2018-09-05T00:47:19.135Z,96791.30
2018-09-05T00:49:47.897Z,96787.83
2018-09-05T00:52:16.673Z,96787.72
2018-09-05T00:54:45.529Z,96784.28
2018-09-05T00:57:14.329Z,96787.28
2018-09-05T00:59:43.084Z,96783.56
2018-09-05T01:02:11.935Z,96780.52
2018-09-05T01:04:40.718Z,96778.38
2018-09-05T01:07:20.402Z,96780.34
2018-09-05T01:09:49.160Z,96781.03
2018-09-05T01:12:18.976Z,96781.48
2018-09-05T01:14:47.809Z,96781.71
2018-09-05T01:17:16.572Z,96781.23
2018-09-05T01:19:45.372Z,96779.28
2018-09-05T01:22:14.140Z,96781.33
2018-09-05T01:24:42.997Z,96782.41
2018-09-05T01:27:12.117Z,96779.52
2018-09-05T01:29:42.113Z,96785.93
2018-09-05T01:32:11.724Z,96787.44
2018-09-05T01:34:41.337Z,96779.45
2018-09-05T01:37:10.657Z,96781.36
2018-09-05T01:39:39.469Z,96781.27
2018-09-05T01:42:09.239Z,96774.17
2018-09-05T01:44:38.100Z,96774.95
2018-09-05T01:47:07.017Z,96771.58
2018-09-05T01:49:35.848Z,96775.88
2018-09-05T01:52:05.149Z,96774.91
2018-09-05T01:54:34.419Z,96771.84
2018-09-05T01:57:03.381Z,96772.51
2018-09-05T01:59:32.339Z,96771.27
2018-09-05T02:02:01.426Z,96775.58
2018-09-05T02:04:30.578Z,96774.02
2018-09-05T02:06:59.652Z,96766.48
2018-09-05T02:09:28.796Z,96765.82
2018-09-05T02:11:57.800Z,96772.00
2018-09-05T02:14:26.816Z,96766.63
2018-09-05T02:16:56.078Z,96767.56
2018-09-05T02:19:25.332Z,96766.53
2018-09-05T02:21:54.321Z,96774.30
2018-09-05T02:24:23.254Z,96764.30
2018-09-05T02:26:52.312Z,96766.59
2018-09-05T02:29:21.039Z,96767.59
2018-09-05T02:31:49.800Z,96767.38
2018-09-05T02:34:18.612Z,96766.30
2018-09-05T02:36:47.380Z,96766.11
2018-09-05T02:39:16.156Z,96765.84
2018-09-05T02:41:44.935Z,96766.19
2018-09-05T02:44:20.362Z,96768.62
2018-09-05T02:46:49.254Z,96769.16
2018-09-05T02:49:18.089Z,96765.03
2018-09-05T02:51:47.406Z,96762.90
2018-09-05T02:54:16.247Z,96766.27
2018-09-05T02:56:44.996Z,96762.92
2018-09-05T02:59:13.759Z,96765.33
2018-09-05T03:01:42.524Z,96763.25
2018-09-05T03:04:11.272Z,96759.95
2018-09-05T03:06:40.052Z,96765.97
2018-09-05T03:09:09.451Z,96767.27
2018-09-05T03:11:38.247Z,96766.77
2018-09-05T03:14:07.128Z,96765.70
2018-09-05T03:16:35.896Z,96766.20
2018-09-05T03:19:04.697Z,96772.92
2018-09-05T03:21:33.455Z,96776.34
2018-09-05T03:24:02.265Z,96774.31
2018-09-05T03:26:31.071Z,96773.83
2018-09-05T03:28:59.834Z,96773.83
2018-09-05T03:31:28.612Z,96769.97
2018-09-05T03:33:57.368Z,96773.63
2018-09-05T03:36:26.163Z,96775.73
2018-09-05T03:38:54.904Z,96773.93
2018-09-05T03:41:23.680Z,96774.46
2018-09-05T03:43:52.441Z,96772.92
2018-09-05T03:46:21.209Z,96769.61
2018-09-05T03:48:49.996Z,96768.85
2018-09-05T03:51:19.088Z,96771.70
2018-09-05T03:53:49.581Z,96774.06
2018-09-05T03:56:19.626Z,96774.31
2018-09-05T03:58:50.228Z,96778.22
2018-09-05T04:01:20.486Z,96774.88
2018-09-05T04:03:50.883Z,96773.62
2018-09-05T04:06:20.513Z,96777.02
2018-09-05T04:08:52.510Z,96776.77
2018-09-05T04:11:22.892Z,96775.23
2018-09-05T04:13:52.717Z,96777.02
2018-09-05T04:16:23.227Z,96776.02
2018-09-05T04:18:52.786Z,96778.60
2018-09-05T04:21:21.568Z,96780.89
2018-09-05T04:23:50.341Z,96783.30
2018-09-05T04:26:19.909Z,96785.09
2018-09-05T04:28:48.679Z,96790.02
2018-09-05T04:31:17.476Z,96792.11
2018-09-05T04:33:46.517Z,96794.26
2018-09-05T04:36:15.920Z,96795.05
2018-09-05T04:38:44.773Z,96796.05
2018-09-05T04:41:13.604Z,96803.36
2018-09-05T04:43:43.754Z,96804.19
2018-09-05T04:46:12.543Z,96807.00
2018-09-05T04:48:41.452Z,96810.90
2018-09-05T04:51:10.311Z,96809.61
2018-09-05T04:53:39.162Z,96812.69
2018-09-05T04:56:07.980Z,96810.88
2018-09-05T04:58:37.262Z,96812.98
2018-09-05T05:01:06.360Z,96813.23
2018-09-05T05:03:35.747Z,96816.89
2018-09-05T05:06:04.695Z,96822.53
2018-09-05T05:08:33.543Z,96822.28
2018-09-05T05:11:02.344Z,96826.66
2018-09-05T05:13:31.159Z,96823.48
2018-09-05T05:16:00.121Z,96822.95
2018-09-05T05:18:28.923Z,96828.34
2018-09-05T05:20:57.943Z,96828.06
2018-09-05T05:23:27.016Z,96830.56
2018-09-05T05:25:55.817Z,96827.66
2018-09-05T05:28:24.865Z,96837.89
2018-09-05T05:30:53.992Z,96838.83
2018-09-05T05:33:22.803Z,96833.90
2018-09-05T05:35:51.666Z,96838.98
2018-09-05T05:38:20.469Z,96840.91
2018-09-05T05:40:49.244Z,96843.67
2018-09-05T05:43:18.065Z,96840.97
2018-09-05T05:45:46.889Z,96839.71
2018-09-05T05:48:15.691Z,96831.13
2018-09-05T05:50:44.500Z,96839.36
2018-09-05T05:53:13.257Z,96839.77
2018-09-05T05:55:42.045Z,96848.53
2018-09-05T05:58:10.806Z,96848.17
2018-09-05T06:00:39.569Z,96847.49
2018-09-05T06:03:08.366Z,96850.48
2018-09-05T06:05:37.137Z,96853.81
2018-09-05T06:08:05.928Z,96856.95
2018-09-05T06:10:34.692Z,96856.48
2018-09-05T06:13:03.474Z,96854.56
2018-09-05T06:15:32.342Z,96852.17
2018-09-05T06:18:01.113Z,96854.11
2018-09-05T06:20:29.861Z,96859.64
2018-09-05T06:22:58.646Z,96858.03
2018-09-05T06:25:27.424Z,96853.52
2018-09-05T06:27:56.250Z,96855.68
2018-09-05T06:30:25.108Z,96848.69
2018-09-05T06:32:53.910Z,96861.59
2018-09-05T06:35:22.704Z,96856.95
2018-09-05T06:37:51.483Z,96861.35
2018-09-05T06:40:20.306Z,96864.25
2018-09-05T06:42:49.090Z,96867.53
2018-09-05T06:45:17.907Z,96866.98
2018-09-05T06:47:46.676Z,96865.20
2018-09-05T06:50:15.455Z,96870.13
2018-09-05T06:52:44.250Z,96864.98
2018-09-05T06:55:13.032Z,96863.36
2018-09-05T06:57:41.849Z,96862.67
2018-09-05T07:00:11.419Z,96861.20
2018-09-05T07:02:40.269Z,96855.14
2018-09-05T07:05:15.428Z,96859.94
2018-09-05T07:07:44.271Z,96849.86
2018-09-05T07:10:13.084Z,96844.94
2018-09-05T07:12:41.858Z,96848.42
2018-09-05T07:15:10.683Z,96842.30
2018-09-05T07:17:39.496Z,96849.58
2018-09-05T07:20:08.297Z,96846.41
2018-09-05T07:22:37.097Z,96845.55
2018-09-05T07:25:06.389Z,96845.33
2018-09-05T07:27:35.236Z,96841.23
2018-09-05T07:30:04.099Z,96840.78
2018-09-05T07:32:32.939Z,96848.11
2018-09-05T07:35:01.716Z,96848.19
2018-09-05T07:37:30.497Z,96848.78
2018-09-05T07:39:59.813Z,96855.65
2018-09-05T07:42:28.585Z,96857.57
2018-09-05T07:44:57.364Z,96856.17
2018-09-05T07:47:26.216Z,96863.39
2018-09-05T07:49:55.020Z,96865.36
2018-09-05T07:52:23.797Z,96867.17
2018-09-05T07:54:52.645Z,96866.70
2018-09-05T07:57:21.633Z,96868.00
2018-09-05T07:59:50.346Z,96863.81
2018-09-05T08:02:19.140Z,96862.18
2018-09-05T08:04:47.974Z,96861.64
2018-09-05T08:07:16.769Z,96863.80
2018-09-05T08:09:45.530Z,96869.41
2018-09-05T08:12:47.692Z,96868.32
2018-09-05T08:15:16.449Z,96860.63
2018-09-05T08:17:45.308Z,96868.12
2018-09-05T08:20:14.093Z,96866.97
2018-09-05T08:22:42.928Z,96864.77
2018-09-05T08:25:11.693Z,96869.02
2018-09-05T08:27:40.452Z,96870.97
2018-09-05T08:30:09.296Z,96862.36
2018-09-05T08:32:38.046Z,96865.26
2018-09-05T08:35:07.210Z,96864.83
2018-09-05T08:37:36.133Z,96864.69
2018-09-05T08:40:04.868Z,96863.16
2018-09-05T08:42:35.118Z,96861.27
2018-09-05T08:45:04.626Z,96864.19
2018-09-05T08:47:33.325Z,96861.95
2018-09-05T08:50:02.504Z,96858.09
2018-09-05T08:52:31.389Z,96859.84
2018-09-05T08:55:00.558Z,96864.52
2018-09-05T08:57:29.338Z,96869.85
2018-09-05T08:59:58.147Z,96863.77
2018-09-05T09:02:26.948Z,96863.69
2018-09-05T09:04:55.852Z,96861.61
2018-09-05T09:07:24.604Z,96862.02
2018-09-05T09:09:53.461Z,96863.91
2018-09-05T09:12:22.349Z,96864.56
2018-09-05T09:14:51.109Z,96860.56
2018-09-05T09:17:19.881Z,96859.59
2018-09-05T09:19:48.671Z,96866.26
2018-09-05T09:22:17.450Z,96853.73
2018-09-05T09:24:46.311Z,96852.98
2018-09-05T09:27:15.168Z,96855.22
2018-09-05T09:29:43.967Z,96842.16
2018-09-05T09:32:12.738Z,96849.97
2018-09-05T09:34:41.644Z,96846.45
2018-09-05T09:37:10.440Z,96848.59
2018-09-05T09:39:39.205Z,96847.57
2018-09-05T09:42:08.441Z,96842.38
2018-09-05T09:44:37.215Z,96839.91
2018-09-05T09:47:06.039Z,96838.32
2018-09-05T09:49:34.822Z,96825.75
2018-09-05T09:52:08.942Z,96823.20
2018-09-05T09:54:37.813Z,96825.30
2018-09-05T09:57:06.613Z,96815.02
2018-09-05T09:59:35.404Z,96820.73
2018-09-05T10:02:09.384Z,96812.98
2018-09-05T10:04:43.239Z,96809.43
2018-09-05T10:07:17.156Z,96811.75
2018-09-05T10:09:51.114Z,96806.48
2018-09-05T10:12:25.001Z,96806.24
2018-09-05T10:15:01.134Z,96811.95
2018-09-05T10:17:31.164Z,96806.44
2018-09-05T10:20:00.793Z,96800.37
2018-09-05T10:22:30.128Z,96789.17
2018-09-05T10:24:59.029Z,96796.75
2018-09-05T10:27:28.506Z,96792.79
2018-09-05T10:29:57.676Z,96793.05
2018-09-05T10:32:26.710Z,96777.89
2018-09-05T10:34:56.432Z,96778.91
2018-09-05T10:37:25.396Z,96772.70
2018-09-05T10:39:54.218Z,96773.66
2018-09-05T10:42:22.990Z,96772.78
2018-09-05T10:44:51.757Z,96771.19
2018-09-05T10:47:20.533Z,96778.45
2018-09-05T10:49:49.291Z,96773.09
2018-09-05T10:52:18.087Z,96776.49
2018-09-05T10:54:46.875Z,96771.61
2018-09-05T10:57:15.680Z,96771.33
2018-09-05T10:59:44.470Z,96771.48
2018-09-05T11:02:13.298Z,96771.98
2018-09-05T11:04:42.057Z,96770.81
2018-09-05T11:07:10.830Z,96767.18
2018-09-05T11:09:39.594Z,96757.57
2018-09-05T11:12:08.365Z,96761.12
2018-09-05T11:14:37.124Z,96756.36
2018-09-05T11:17:05.946Z,96758.56
2018-09-05T11:19:34.710Z,96755.91
2018-09-05T11:22:03.511Z,96752.31
2018-09-05T11:24:32.349Z,96746.72
2018-09-05T11:27:01.149Z,96742.31
2018-09-05T11:29:29.924Z,96743.08
2018-09-05T11:31:58.732Z,96745.34
2018-09-05T11:34:27.502Z,96744.14
2018-09-05T11:36:56.333Z,96744.55
2018-09-05T11:39:25.125Z,96744.27
2018-09-05T11:41:53.913Z,96739.80
2018-09-05T11:44:22.788Z,96738.57
2018-09-05T11:46:51.567Z,96732.50
2018-09-05T11:49:20.356Z,96734.22
2018-09-05T11:51:49.130Z,96736.70
2018-09-05T11:54:17.897Z,96731.26
2018-09-05T11:56:46.669Z,96731.41
2018-09-05T11:59:15.484Z,96729.34
2018-09-05T12:01:44.313Z,96731.67
2018-09-05T12:04:13.084Z,96735.55
2018-09-05T12:06:41.936Z,96734.67
2018-09-05T12:09:11.769Z,96729.92
2018-09-05T12:11:40.610Z,96728.61
2018-09-05T12:14:10.059Z,96724.59
2018-09-05T12:16:39.119Z,96723.26
2018-09-05T12:19:08.348Z,96726.17
2018-09-05T12:21:37.126Z,96718.52
2018-09-05T12:24:05.912Z,96715.44
2018-09-05T12:26:35.029Z,96720.01
2018-09-05T12:29:06.433Z,96712.67
2018-09-05T12:31:35.235Z,96715.58
2018-09-05T12:34:04.009Z,96706.77
2018-09-05T12:36:32.777Z,96705.28
2018-09-05T12:39:01.568Z,96701.15
2018-09-05T12:41:30.438Z,96694.27
2018-09-05T12:43:59.204Z,96698.30
2018-09-05T12:46:27.972Z,96697.26
2018-09-05T12:48:56.713Z,96693.67
2018-09-05T12:51:25.553Z,96690.88
2018-09-05T12:53:54.349Z,96699.29
2018-09-05T12:56:23.142Z,96689.77
2018-09-05T12:58:51.904Z,96684.70
2018-09-05T13:01:20.749Z,96688.08
2018-09-05T13:03:49.659Z,96684.58
2018-09-05T13:06:18.469Z,96688.06
2018-09-05T13:08:47.238Z,96681.41
2018-09-05T13:11:16.079Z,96686.27
2018-09-05T13:13:44.826Z,96677.52
2018-09-05T13:16:13.592Z,96679.26
2018-09-05T13:18:42.419Z,96682.50
2018-09-05T13:21:11.202Z,96679.27
2018-09-05T13:23:39.957Z,96670.26
2018-09-05T13:26:08.739Z,96668.75
2018-09-05T13:28:37.501Z,96670.02
2018-09-05T13:31:06.322Z,96666.80
2018-09-05T13:33:35.113Z,96671.47
2018-09-05T13:36:04.108Z,96669.76
2018-09-05T13:38:32.959Z,96666.47
2018-09-05T13:41:01.721Z,96664.17
2018-09-05T13:43:30.492Z,96657.63
2018-09-05T13:45:59.257Z,96652.53
2018-09-05T13:48:28.089Z,96661.88
2018-09-05T13:50:56.851Z,96651.12
2018-09-05T13:53:25.608Z,96655.27
2018-09-05T13:55:54.393Z,96655.70
2018-09-05T13:58:23.248Z,96650.84
2018-09-05T14:00:52.073Z,96643.99
2018-09-05T14:03:20.856Z,96640.22
2018-09-05T14:05:49.624Z,96640.44
2018-09-05T14:08:18.418Z,96637.19
2018-09-05T14:10:47.219Z,96639.84
2018-09-05T14:13:16.021Z,96628.78
2018-09-05T14:15:44.795Z,96635.13
2018-09-05T14:18:13.559Z,96633.08
2018-09-05T14:20:42.464Z,96633.45
2018-09-05T14:23:11.181Z,96627.56
2018-09-05T14:25:39.943Z,96622.46
2018-09-05T14:28:09.014Z,96627.55
2018-09-05T14:30:37.897Z,96631.83
2018-09-05T14:33:06.739Z,96620.89
2018-09-05T14:35:35.493Z,96631.44
2018-09-05T14:38:04.357Z,96627.59
2018-09-05T14:40:33.107Z,96626.58
2018-09-05T14:43:01.893Z,96630.22
2018-09-05T14:45:30.668Z,96623.98
2018-09-05T14:47:59.428Z,96624.91
2018-09-05T14:50:28.218Z,96627.00
2018-09-05T14:52:56.973Z,96619.05
2018-09-05T14:55:25.729Z,96618.30
2018-09-05T14:57:54.480Z,96622.84
2018-09-05T15:00:23.266Z,96622.23
2018-09-05T15:02:52.022Z,96617.58
2018-09-05T15:05:20.806Z,96617.35
2018-09-05T15:07:50.799Z,96612.45
2018-09-05T15:10:19.597Z,96610.84
2018-09-05T15:12:48.366Z,96610.02
2018-09-05T15:15:17.695Z,96608.84
2018-09-05T15:17:46.552Z,96605.95
2018-09-05T15:20:15.269Z,96606.60
2018-09-05T15:22:44.036Z,96599.59
2018-09-05T15:25:12.793Z,96607.94
2018-09-05T15:27:41.594Z,96600.36
2018-09-05T15:30:10.652Z,96596.55
2018-09-05T15:32:39.442Z,96604.14
2018-09-05T15:35:08.244Z,96598.10
2018-09-05T15:37:37.005Z,96605.05
2018-09-05T15:40:06.145Z,96602.19
2018-09-05T15:42:34.940Z,96599.92
2018-09-05T15:45:03.721Z,96598.14
2018-09-05T15:47:32.487Z,96596.34
2018-09-05T15:50:01.287Z,96597.42
2018-09-05T15:52:30.073Z,96600.23
2018-09-05T15:54:58.821Z,96601.30
2018-09-05T15:57:27.715Z,96594.70
2018-09-05T15:59:56.630Z,96592.61
2018-09-05T16:02:25.388Z,96589.10
2018-09-05T16:04:54.133Z,96588.61
2018-09-05T16:07:22.893Z,96585.61
2018-09-05T16:09:51.665Z,96581.21
2018-09-05T16:12:20.447Z,96578.27
2018-09-05T16:14:49.213Z,96582.03
2018-09-05T16:17:18.099Z,96585.47
2018-09-05T16:19:46.849Z,96582.03
2018-09-05T16:22:15.621Z,96584.28
2018-09-05T16:24:44.381Z,96584.92
2018-09-05T16:27:13.124Z,96586.98
2018-09-05T16:29:41.928Z,96583.14
2018-09-05T16:32:10.681Z,96585.13
2018-09-05T16:34:39.464Z,96586.76
2018-09-05T16:37:08.230Z,96586.66
2018-09-05T16:39:37.272Z,96580.45
2018-09-05T16:42:06.282Z,96581.48
2018-09-05T16:44:35.256Z,96585.87
2018-09-05T16:47:05.257Z,96585.33
2018-09-05T16:49:34.199Z,96579.11
2018-09-05T16:52:02.972Z,96579.41
2018-09-05T16:54:31.927Z,96572.81
2018-09-05T16:57:00.787Z,96575.86
2018-09-05T16:59:29.625Z,96575.66
2018-09-05T17:01:58.590Z,96573.17
2018-09-05T17:04:27.407Z,96582.02
2018-09-05T17:06:56.717Z,96576.79
2018-09-05T17:09:25.888Z,96585.55
2018-09-05T17:11:55.149Z,96585.36
2018-09-05T17:14:23.936Z,96582.59
2018-09-05T17:16:52.767Z,96580.97
2018-09-05T17:19:21.526Z,96582.24
2018-09-05T17:21:52.206Z,96581.78
2018-09-05T17:24:21.058Z,96583.14
2018-09-05T17:26:49.908Z,96585.14
2018-09-05T17:29:18.852Z,96581.94
2018-09-05T17:31:47.704Z,96589.87
2018-09-05T17:34:16.532Z,96588.87
2018-09-05T17:36:45.558Z,96590.45
2018-09-05T17:39:14.344Z,96591.30
2018-09-05T17:41:43.421Z,96580.98
2018-09-05T17:44:12.604Z,96581.48
2018-09-05T17:46:41.392Z,96581.65
2018-09-05T17:49:10.619Z,96582.41
2018-09-05T17:51:39.643Z,96583.73
2018-09-05T17:54:08.427Z,96582.17
2018-09-05T17:56:37.253Z,96581.13
2018-09-05T17:59:06.421Z,96583.22
2018-09-05T18:01:35.381Z,96589.72
2018-09-05T18:04:10.601Z,96587.09
2018-09-05T18:06:39.364Z,96578.28
2018-09-05T18:09:09.749Z,96582.46
2018-09-05T18:11:38.630Z,96585.54
2018-09-05T18:14:07.497Z,96591.44
2018-09-05T18:16:36.371Z,96593.84
2018-09-05T18:19:05.207Z,96593.53
2018-09-05T18:21:35.530Z,96583.50
2018-09-05T18:24:04.637Z,96594.41
2018-09-05T18:26:33.627Z,96596.02
2018-09-05T18:29:02.640Z,96598.84
2018-09-05T18:31:31.644Z,96592.06
2018-09-05T18:34:00.413Z,96597.52
2018-09-05T18:36:29.428Z,96598.83
2018-09-05T18:38:58.209Z,96599.36
2018-09-05T18:41:27.058Z,96595.66
2018-09-05T18:43:55.846Z,96595.45
2018-09-05T18:46:24.608Z,96602.39
2018-09-05T18:48:53.396Z,96602.30
2018-09-05T18:51:22.167Z,96601.86
2018-09-05T18:53:50.961Z,96594.21
2018-09-05T18:56:19.844Z,96589.73
2018-09-05T18:58:48.699Z,96592.78
2018-09-05T19:01:17.520Z,96590.80
2018-09-05T19:03:46.389Z,96592.41
2018-09-05T19:06:15.177Z,96599.04
2018-09-05T19:08:44.845Z,96597.54
2018-09-05T19:11:14.616Z,96594.48
2018-09-05T19:13:43.382Z,96602.94
2018-09-05T19:16:12.221Z,96597.14
2018-09-05T19:18:41.132Z,96600.50
2018-09-05T19:21:09.908Z,96596.23
2018-09-05T19:23:38.708Z,96596.66
2018-09-05T19:26:09.382Z,96601.09
2018-09-05T19:28:38.537Z,96599.87
2018-09-05T19:31:07.391Z,96602.17
2018-09-05T19:33:36.456Z,96600.52
2018-09-05T19:36:05.655Z,96599.38
2018-09-05T19:38:34.438Z,96598.92
2018-09-05T19:41:03.235Z,96604.37
2018-09-05T19:43:32.055Z,96602.98
2018-09-05T19:46:00.861Z,96604.52
2018-09-05T19:48:29.629Z,96596.63
2018-09-05T19:51:01.566Z,96603.58
2018-09-05T19:53:30.471Z,96599.80
2018-09-05T19:55:59.250Z,96600.74
2018-09-05T19:58:28.033Z,96597.69
2018-09-05T20:00:56.878Z,96600.08
2018-09-05T20:03:26.609Z,96597.66
2018-09-05T20:05:55.996Z,96593.16
2018-09-05T20:08:25.059Z,96596.16
2018-09-05T20:10:53.965Z,96595.71
2018-09-05T20:13:22.798Z,96597.73
2018-09-05T20:15:52.561Z,96586.19
2018-09-05T20:18:21.763Z,96593.68
2018-09-05T20:20:50.575Z,96600.05
2018-09-05T20:23:23.722Z,96592.83
2018-09-05T20:25:52.836Z,96602.34
2018-09-05T20:28:21.708Z,96598.69
2018-09-05T20:30:50.694Z,96598.47
2018-09-05T20:33:19.500Z,96592.66
2018-09-05T20:35:48.253Z,96592.06
2018-09-05T20:38:17.051Z,96589.16
2018-09-05T20:40:46.017Z,96586.18
2018-09-05T20:43:15.409Z,96584.28
2018-09-05T20:45:44.503Z,96582.38
2018-09-05T20:48:13.324Z,96580.52
2018-09-05T20:50:42.195Z,96579.55
2018-09-05T20:53:11.142Z,96585.06
2018-09-05T20:55:40.069Z,96576.57
2018-09-05T20:58:10.709Z,96581.67
2018-09-05T21:00:39.512Z,96576.31
2018-09-05T21:03:08.300Z,96577.47
2018-09-05T21:05:37.149Z,96575.72
2018-09-05T21:08:06.320Z,96580.25
2018-09-05T21:10:35.101Z,96576.12
2018-09-05T21:13:05.666Z,96575.89
2018-09-05T21:15:35.168Z,96576.04
2018-09-05T21:18:04.212Z,96573.21
2018-09-05T21:20:33.567Z,96576.14
2018-09-05T21:23:02.770Z,96572.16
2018-09-05T21:25:32.608Z,96569.77
2018-09-05T21:28:01.602Z,96568.72
2018-09-05T21:30:30.640Z,96570.55
2018-09-05T21:32:59.755Z,96568.27
2018-09-05T21:35:28.512Z,96568.79
2018-09-05T21:37:57.518Z,96569.48
2018-09-05T21:40:26.334Z,96565.44
2018-09-05T21:42:55.088Z,96566.97
2018-09-05T21:45:23.905Z,96562.50
2018-09-05T21:47:52.701Z,96561.16
2018-09-05T21:50:21.470Z,96566.43
2018-09-05T21:52:50.335Z,96562.19
2018-09-05T21:55:19.260Z,96566.55
2018-09-05T21:57:48.141Z,96565.03
2018-09-05T22:00:16.950Z,96562.61
2018-09-05T22:02:45.728Z,96561.00
2018-09-05T22:05:14.534Z,96569.66
2018-09-05T22:07:43.341Z,96559.61
2018-09-05T22:10:12.184Z,96564.92
2018-09-05T22:12:40.948Z,96561.70
2018-09-05T22:15:09.761Z,96569.97
2018-09-05T22:17:39.196Z,96568.37
2018-09-05T22:20:08.685Z,96569.81
2018-09-05T22:22:37.591Z,96570.73
2018-09-05T22:25:06.518Z,96567.89
2018-09-05T22:27:35.295Z,96569.95
2018-09-05T22:30:04.221Z,96569.89
2018-09-05T22:32:33.064Z,96569.34
2018-09-05T22:35:01.816Z,96574.41
2018-09-05T22:37:30.705Z,96581.60
2018-09-05T22:39:59.478Z,96574.94
2018-09-05T22:42:30.373Z,96569.15
2018-09-05T22:45:10.201Z,96570.87
2018-09-05T22:47:54.201Z,96574.02
2018-09-05T22:51:44.770Z,96581.02
2018-09-05T22:56:38.485Z,96573.28
2018-09-05T22:59:26.082Z,96565.98
2018-09-05T23:02:07.822Z,96562.53
2018-09-05T23:05:51.664Z,96560.78
2018-09-05T23:08:37.740Z,96554.22
2018-09-05T23:11:18.051Z,96559.59
2018-09-05T23:13:58.248Z,96558.73
2018-09-05T23:16:38.370Z,96551.62
2018-09-05T23:19:44.471Z,96549.54
2018-09-05T23:22:13.222Z,96548.40
2018-09-05T23:24:41.997Z,96547.33
2018-09-05T23:27:10.789Z,96548.30
2018-09-05T23:29:39.602Z,96545.24
2018-09-05T23:32:08.349Z,96544.10
2018-09-05T23:34:37.144Z,96540.94
2018-09-05T23:37:05.931Z,96548.91
2018-09-05T23:39:34.690Z,96539.35
2018-09-05T23:42:03.488Z,96536.30
2018-09-05T23:44:32.265Z,96534.55
2018-09-05T23:47:01.095Z,96528.33
2018-09-05T23:49:29.973Z,96529.92
2018-09-05T23:51:59.749Z,96521.50
2018-09-05T23:54:28.702Z,96525.50
2018-09-05T23:56:57.581Z,96521.59
2018-09-05T23:59:26.365Z,96519.52
